Woody Creek, Colorado
Current Conditions -  °F | °C
As of 6:12 AM on Thursday 18 Dec 2014 (Local Time) from KASE Reporting Station
Overcast Overcast  
Wind Chill: 17°   Ceiling: 3900
Heat Index: 24°   Visibility: 10mi
Dew Point: 17°   Wind: 6mph
Humidity: 75%   Direction: 180°S
Pressure: 30.04"   Gusts: NA
Location:  39.28°N, 106.89°W
Report Text: KASE 181312Z AUTO 18005KT 10SM FEW025 BKN039 OVC045 M04/M08 A3004 RMK AO2 T10441083
Loading
Personal Weather Stations






























Interactive Weather Map New forecast layout! Learn more

10-Day Weather Forecast

Advertisements
Track Severe Weather on mobile